Погода Мекнесна 2 недели

Мекнес, Марокко

19 июля-01 августа
  • 19июля
    Сегодня
    +24°
    +41°
    Ясно и безоблачно
    ВремяПогодаТемператураВлажностьДавлениеВетер, м/сВероятность осадков
    01:00Небольшая облачность+30°C30 %718 мм4.6 м/с2 %
    04:00Практически безоблачно+27°C36 %716 мм2.7 м/с2 %
    07:00Ясно и безоблачно+26°C39 %717 мм2.5 м/с2 %
    10:00Ясно и безоблачно+35°C21 %718 мм2.6 м/с2 %
    13:00Ясно и безоблачно+38°C16 %718 мм3.3 м/с2 %
    16:00Практически безоблачно+40°C14 %717 мм4.9 м/с2 %
    19:00Небольшая облачность+36°C22 %717 мм4.7 м/с2 %
    22:00Небольшая облачность+32°C37 %719 мм2.8 м/с2 %
  • 20июля
    Суббота
    +19°
    +37°
    Ясно и безоблачно
    ВремяПогодаТемператураВлажностьДавлениеВетер, м/сВероятность осадков
    01:00Практически безоблачно+29°C45 %717 мм1.6 м/с2 %
    04:00Ясно и безоблачно+26°C50 %715 мм1.9 м/с2 %
    07:00Ясно и безоблачно+24°C58 %716 мм1.6 м/с2 %
    10:00Ясно и безоблачно+31°C35 %717 мм2.9 м/с2 %
    13:00Ясно и безоблачно+35°C24 %716 мм3.3 м/с2 %
    16:00Ясно и безоблачно+37°C21 %715 мм5.5 м/с2 %
    19:00Ясно и безоблачно+32°C23 %715 мм5.9 м/с2 %
    22:00Ясно и безоблачно+26°C47 %716 мм2.8 м/с2 %
  • 21июля
    Воскресенье
    +19°
    +36°
    Ясно и безоблачно
    ВремяПогодаТемператураВлажностьДавлениеВетер, м/сВероятность осадков
    01:00Ясно и безоблачно+23°C63 %716 мм1.9 м/с2 %
    04:00Ясно и безоблачно+20°C77 %715 мм2.0 м/с2 %
    07:00Ясно и безоблачно+19°C81 %715 мм1.4 м/с2 %
    10:00Ясно и безоблачно+27°C32 %717 мм1.9 м/с2 %
    13:00Ясно и безоблачно+33°C22 %716 мм3.2 м/с2 %
    16:00Ясно и безоблачно+35°C22 %715 мм4.6 м/с2 %
    19:00Ясно и безоблачно+32°C31 %715 мм5.1 м/с2 %
    22:00Ясно и безоблачно+25°C51 %716 мм2.7 м/с2 %
  • 22июля
    Понедельник
    +21°
    +38°
    Ясно и безоблачно
    ВремяПогодаТемператураВлажностьДавлениеВетер, м/сВероятность осадков
    01:00Ясно и безоблачно+22°C67 %716 мм1.5 м/с2 %
    04:00Ясно и безоблачно+20°C78 %715 мм1.8 м/с2 %
    07:00Ясно и безоблачно+20°C75 %715 мм2.5 м/с2 %
    10:00Ясно и безоблачно+29°C39 %716 мм2.7 м/с2 %
    13:00Ясно и безоблачно+35°C25 %716 мм2.9 м/с2 %
    16:00Ясно и безоблачно+38°C18 %715 мм4.3 м/с2 %
    19:00Ясно и безоблачно+35°C23 %715 мм5.1 м/с2 %
    22:00Облачно с прояснениями+27°C48 %716 мм2.4 м/с2 %
  • 23июля
    Вторник
    +23°
    +40°
    Ясно и безоблачно
    ВремяПогодаТемператураВлажностьДавлениеВетер, м/сВероятность осадков
    01:00Небольшая облачность+25°C55 %716 мм1.9 м/с2 %
    04:00Облачно с прояснениями+23°C54 %715 мм2.4 м/с2 %
    07:00Практически безоблачно+22°C59 %715 мм2.2 м/с2 %
    10:00Ясно и безоблачно+32°C32 %716 мм2.4 м/с2 %
    13:00Ясно и безоблачно+37°C23 %716 мм3.3 м/с2 %
    16:00Практически безоблачно+40°C18 %716 мм5.2 м/с2 %
    19:00Облачно с прояснениями+37°C23 %716 мм5.2 м/с2 %
    22:00Практически безоблачно+30°C40 %717 мм2.6 м/с2 %
Мы используем cookies
Соглашаюсь